createdAt,value
2022-12-04T00:01:21.131Z,8.30
2022-12-04T00:03:48.383Z,8.30
2022-12-04T00:06:19.294Z,8.30
2022-12-04T00:08:47.577Z,8.30
2022-12-04T00:11:17.250Z,8.30
2022-12-04T00:13:44.510Z,8.30
2022-12-04T00:16:14.379Z,8.30
2022-12-04T00:18:41.370Z,8.30
2022-12-04T00:21:11.218Z,8.30
2022-12-04T00:23:38.966Z,8.40
2022-12-04T00:26:09.148Z,8.40
2022-12-04T00:28:36.811Z,8.50
2022-12-04T00:31:09.327Z,8.40
2022-12-04T00:33:36.641Z,8.30
2022-12-04T00:36:07.396Z,8.30
2022-12-04T00:38:34.324Z,8.30
2022-12-04T00:41:01.046Z,8.40
2022-12-04T00:43:28.818Z,8.40
2022-12-04T00:45:56.212Z,8.30
2022-12-04T00:48:23.375Z,8.30
2022-12-04T00:50:50.271Z,8.30
2022-12-04T00:53:17.048Z,8.40
2022-12-04T00:55:44.390Z,8.30
2022-12-04T00:58:11.274Z,8.30
2022-12-04T01:00:40.440Z,8.30
2022-12-04T01:03:08.870Z,8.30
2022-12-04T01:05:44.671Z,8.30
2022-12-04T01:08:12.495Z,8.30
2022-12-04T01:10:41.279Z,8.30
2022-12-04T01:13:08.198Z,8.30
2022-12-04T01:15:39.751Z,8.30
2022-12-04T01:18:06.859Z,8.30
2022-12-04T01:20:33.644Z,8.30
2022-12-04T01:23:00.503Z,8.30
2022-12-04T01:25:27.323Z,8.30
2022-12-04T01:27:54.057Z,8.40
2022-12-04T01:30:20.782Z,8.30
2022-12-04T01:32:47.368Z,8.30
2022-12-04T01:35:13.980Z,8.40
2022-12-04T01:37:40.598Z,8.40
2022-12-04T01:40:11.436Z,8.30
2022-12-04T01:42:38.019Z,8.30
2022-12-04T01:45:39.031Z,8.30
2022-12-04T01:48:27.440Z,8.40
2022-12-04T01:51:00.055Z,8.30
2022-12-04T01:53:27.066Z,8.30
2022-12-04T01:55:55.246Z,8.30
2022-12-04T01:58:28.459Z,8.40
2022-12-04T02:01:00.789Z,8.40
2022-12-04T02:03:30.383Z,8.40
2022-12-04T02:05:57.058Z,8.30
2022-12-04T02:08:24.232Z,8.40
2022-12-04T02:11:02.773Z,8.30
2022-12-04T02:13:41.954Z,8.40
2022-12-04T02:16:22.495Z,8.30
2022-12-04T02:19:24.918Z,8.30
2022-12-04T02:21:55.356Z,8.40
2022-12-04T02:24:34.100Z,8.40
2022-12-04T02:27:09.005Z,8.50
2022-12-04T02:29:59.330Z,8.40
2022-12-04T02:32:41.080Z,8.40
2022-12-04T02:35:30.186Z,8.40
2022-12-04T02:38:11.839Z,8.40
2022-12-04T02:41:21.813Z,8.40
2022-12-04T02:44:01.653Z,8.40
2022-12-04T02:46:38.545Z,8.40
2022-12-04T02:49:12.058Z,8.30
2022-12-04T02:51:41.289Z,8.30
2022-12-04T02:54:16.448Z,8.40
2022-12-04T02:56:46.497Z,8.40
2022-12-04T02:59:20.135Z,8.40
2022-12-04T03:01:51.896Z,8.40
2022-12-04T03:04:21.596Z,8.40
2022-12-04T03:06:54.939Z,8.40
2022-12-04T03:09:27.613Z,8.40
2022-12-04T03:11:59.642Z,8.30
2022-12-04T03:14:37.214Z,8.40
2022-12-04T03:17:10.316Z,8.40
2022-12-04T03:19:41.602Z,8.40
2022-12-04T03:22:13.491Z,8.40
2022-12-04T03:24:50.837Z,8.40
2022-12-04T03:27:26.034Z,8.40
2022-12-04T03:30:00.351Z,8.40
2022-12-04T03:32:49.431Z,8.40
2022-12-04T03:35:21.928Z,8.40
2022-12-04T03:38:11.261Z,8.40
2022-12-04T03:40:55.736Z,8.40
2022-12-04T03:43:39.445Z,8.30
2022-12-04T03:46:12.481Z,8.30
2022-12-04T03:48:42.980Z,8.30
2022-12-04T03:51:19.622Z,8.30
2022-12-04T03:53:54.758Z,8.30
2022-12-04T03:56:32.960Z,8.30
2022-12-04T03:59:11.183Z,8.30
2022-12-04T04:01:44.472Z,8.40
2022-12-04T04:04:15.640Z,8.40
2022-12-04T04:06:56.929Z,8.40
2022-12-04T04:09:26.437Z,8.30
2022-12-04T04:11:58.617Z,8.30
2022-12-04T04:15:19.720Z,8.30
2022-12-04T04:18:07.757Z,8.30
2022-12-04T04:21:00.825Z,8.40
2022-12-04T04:23:51.460Z,8.30
2022-12-04T04:26:18.706Z,8.40
2022-12-04T04:28:46.336Z,8.30
2022-12-04T04:31:19.071Z,8.40
2022-12-04T04:34:14.567Z,8.40
2022-12-04T04:37:09.947Z,8.40
2022-12-04T04:40:05.717Z,8.30
2022-12-04T04:42:48.425Z,8.40
2022-12-04T04:45:21.559Z,8.40
2022-12-04T04:47:57.808Z,8.40
2022-12-04T04:50:24.902Z,8.40
2022-12-04T04:52:57.622Z,8.40
2022-12-04T04:55:24.346Z,8.40
2022-12-04T04:57:50.965Z,8.40
2022-12-04T05:00:21.097Z,8.40
2022-12-04T05:02:50.026Z,8.40
2022-12-04T05:05:17.861Z,8.30
2022-12-04T05:07:44.588Z,8.40
2022-12-04T05:10:11.296Z,8.30
2022-12-04T05:12:37.950Z,8.30
2022-12-04T05:15:05.329Z,8.40
2022-12-04T05:17:31.915Z,8.40
2022-12-04T05:19:58.819Z,8.40
2022-12-04T05:22:34.693Z,8.30
2022-12-04T05:25:01.915Z,8.30
2022-12-04T05:27:29.958Z,8.40
2022-12-04T05:29:58.408Z,8.40
2022-12-04T05:32:27.675Z,8.40
2022-12-04T05:34:55.565Z,8.40
2022-12-04T05:37:22.968Z,8.40
2022-12-04T05:39:49.629Z,8.40
2022-12-04T05:42:16.274Z,8.40
2022-12-04T05:44:42.911Z,8.30
2022-12-04T05:47:09.546Z,8.40
2022-12-04T05:49:36.170Z,8.40
2022-12-04T05:52:04.838Z,8.40
2022-12-04T05:54:31.582Z,8.30
2022-12-04T05:56:58.180Z,8.40
2022-12-04T05:59:24.809Z,8.40
2022-12-04T06:01:51.462Z,8.40
2022-12-04T06:04:18.094Z,8.40
2022-12-04T06:06:44.816Z,8.40
2022-12-04T06:09:11.931Z,8.30
2022-12-04T06:11:41.135Z,8.40
2022-12-04T06:14:11.017Z,8.30
2022-12-04T06:16:40.773Z,8.40
2022-12-04T06:19:17.605Z,8.40
2022-12-04T06:21:46.684Z,8.30
2022-12-04T06:24:16.170Z,8.30
2022-12-04T06:27:03.891Z,8.30
2022-12-04T06:29:30.162Z,8.40
2022-12-04T06:31:56.811Z,8.40
2022-12-04T06:34:23.481Z,8.40
2022-12-04T06:36:50.072Z,8.40
2022-12-04T06:39:19.031Z,8.40
2022-12-04T06:41:47.404Z,8.40
2022-12-04T06:44:15.626Z,8.40
2022-12-04T06:46:46.890Z,8.40
2022-12-04T06:49:14.432Z,8.40
2022-12-04T06:51:41.078Z,8.40
2022-12-04T06:54:08.874Z,8.40
2022-12-04T06:56:35.765Z,8.30
2022-12-04T06:59:04.103Z,8.40
2022-12-04T07:01:33.331Z,8.40
2022-12-04T07:04:03.303Z,8.40
2022-12-04T07:06:32.918Z,8.40
2022-12-04T07:09:02.809Z,8.40
2022-12-04T07:11:29.963Z,8.40
2022-12-04T07:13:56.681Z,8.40
2022-12-04T07:16:24.872Z,8.40
2022-12-04T07:18:53.821Z,8.40
2022-12-04T07:21:23.393Z,8.40
2022-12-04T07:23:51.695Z,8.40
2022-12-04T07:26:19.177Z,8.40
2022-12-04T07:28:46.280Z,8.50
2022-12-04T07:31:18.848Z,8.50
2022-12-04T07:33:46.259Z,8.40
2022-12-04T07:36:15.419Z,8.50
2022-12-04T07:38:42.577Z,8.50
2022-12-04T07:41:11.176Z,8.40
2022-12-04T07:43:38.113Z,8.50
2022-12-04T07:46:07.425Z,8.50
2022-12-04T07:48:34.361Z,8.40
2022-12-04T07:51:09.272Z,8.50
2022-12-04T07:53:36.355Z,8.50
2022-12-04T07:56:04.616Z,8.50
2022-12-04T07:58:32.029Z,8.50
2022-12-04T08:01:09.815Z,8.50
2022-12-04T08:03:38.935Z,8.40
2022-12-04T08:06:09.405Z,8.40
2022-12-04T08:08:36.733Z,8.50
2022-12-04T08:11:12.363Z,8.50
2022-12-04T08:13:38.942Z,8.50
2022-12-04T08:16:07.097Z,8.50
2022-12-04T08:18:33.998Z,8.50
2022-12-04T08:21:12.437Z,8.50
2022-12-04T08:23:40.661Z,8.50
2022-12-04T08:26:07.849Z,8.50
2022-12-04T08:28:35.063Z,8.50
2022-12-04T08:31:12.413Z,8.60
2022-12-04T08:33:39.832Z,8.60
2022-12-04T08:36:08.495Z,8.60
2022-12-04T08:38:35.573Z,8.60
2022-12-04T08:41:04.019Z,8.60
2022-12-04T08:43:30.990Z,8.60
2022-12-04T08:45:59.615Z,8.50
2022-12-04T08:48:26.901Z,8.50
2022-12-04T08:50:54.203Z,8.60
2022-12-04T08:53:21.272Z,8.60
2022-12-04T08:55:48.134Z,8.60
2022-12-04T08:58:15.018Z,8.60
2022-12-04T09:00:42.318Z,8.60
2022-12-04T09:03:13.454Z,8.60
2022-12-04T09:05:41.399Z,8.60
2022-12-04T09:08:08.229Z,8.90
2022-12-04T09:10:36.107Z,8.90
2022-12-04T09:13:03.354Z,8.80
2022-12-04T09:15:30.289Z,8.70
2022-12-04T09:17:56.982Z,8.70
2022-12-04T09:20:23.714Z,8.70
2022-12-04T09:23:03.573Z,8.70
2022-12-04T09:25:31.680Z,8.70
2022-12-04T09:27:59.034Z,8.70
2022-12-04T09:30:25.660Z,8.70
2022-12-04T09:32:52.337Z,8.70
2022-12-04T09:35:19.022Z,8.70
2022-12-04T09:37:45.687Z,8.80
2022-12-04T09:40:24.962Z,8.70
2022-12-04T09:43:07.734Z,8.70
2022-12-04T09:45:46.934Z,8.70
2022-12-04T09:48:18.556Z,8.70
2022-12-04T09:50:46.425Z,8.70
2022-12-04T09:53:20.831Z,8.80
2022-12-04T09:55:51.415Z,8.80
2022-12-04T09:58:22.688Z,9.10
2022-12-04T10:00:52.075Z,9.00
2022-12-04T10:03:21.960Z,9.00
2022-12-04T10:06:11.806Z,9.00
2022-12-04T10:08:44.855Z,9.00
2022-12-04T10:11:32.350Z,8.90
2022-12-04T10:14:23.276Z,8.90
2022-12-04T10:17:13.283Z,8.90
2022-12-04T10:20:14.998Z,8.90
2022-12-04T10:23:16.259Z,8.90
2022-12-04T10:25:43.750Z,8.90
2022-12-04T10:28:38.994Z,8.90
2022-12-04T10:31:12.441Z,8.90
2022-12-04T10:33:51.635Z,8.90
2022-12-04T10:36:21.566Z,8.90
2022-12-04T10:39:01.875Z,8.80
2022-12-04T10:41:45.299Z,8.80
2022-12-04T10:44:16.659Z,8.70
2022-12-04T10:46:46.230Z,8.70
2022-12-04T10:49:18.381Z,8.70
2022-12-04T10:51:45.772Z,8.70
2022-12-04T10:54:21.855Z,8.70
2022-12-04T10:57:00.909Z,8.70
2022-12-04T10:59:28.788Z,8.70
2022-12-04T11:02:25.915Z,8.70
2022-12-04T11:05:07.892Z,8.70
2022-12-04T11:07:48.237Z,8.70
2022-12-04T11:10:41.465Z,8.70
2022-12-04T11:13:11.088Z,8.70
2022-12-04T11:15:55.374Z,8.70
2022-12-04T11:18:31.386Z,8.70
2022-12-04T11:21:07.187Z,8.70
2022-12-04T11:23:50.103Z,8.70
2022-12-04T11:26:38.074Z,8.70
2022-12-04T11:29:05.847Z,8.70
2022-12-04T11:31:33.045Z,8.70
2022-12-04T11:34:06.699Z,8.70
2022-12-04T11:36:42.636Z,8.80
2022-12-04T11:39:36.145Z,8.80
2022-12-04T11:42:19.501Z,8.80
2022-12-04T11:44:57.689Z,8.70
2022-12-04T11:47:28.720Z,8.80
2022-12-04T11:50:14.118Z,8.80
2022-12-04T11:53:28.694Z,8.80
2022-12-04T11:56:25.197Z,8.80
2022-12-04T11:58:59.620Z,8.80
2022-12-04T12:01:40.548Z,8.80
2022-12-04T12:04:31.763Z,8.80
2022-12-04T12:07:23.037Z,8.80
2022-12-04T12:09:53.254Z,8.80
2022-12-04T12:12:45.518Z,8.80
2022-12-04T12:15:39.500Z,8.80
2022-12-04T12:18:33.560Z,8.80
2022-12-04T12:21:12.650Z,8.80
2022-12-04T12:23:58.761Z,8.80
2022-12-04T12:26:54.729Z,8.80
2022-12-04T12:30:15.865Z,8.80
2022-12-04T12:32:54.645Z,8.80
2022-12-04T12:35:33.992Z,8.80
2022-12-04T12:38:10.528Z,8.80
2022-12-04T12:40:40.218Z,8.90
2022-12-04T12:43:35.681Z,8.90
2022-12-04T12:46:15.232Z,8.90
2022-12-04T12:49:07.287Z,8.90
2022-12-04T12:51:46.945Z,8.90
2022-12-04T12:54:39.441Z,8.90
2022-12-04T12:57:15.286Z,8.90
2022-12-04T12:59:51.709Z,8.90
2022-12-04T13:02:40.705Z,9.00
2022-12-04T13:05:17.347Z,9.00
2022-12-04T13:07:53.013Z,9.00
2022-12-04T13:10:29.147Z,9.00
2022-12-04T13:13:12.006Z,9.00
2022-12-04T13:15:44.598Z,9.00
2022-12-04T13:18:41.557Z,9.00
2022-12-04T13:21:13.898Z,9.00
2022-12-04T13:23:44.824Z,9.00
2022-12-04T13:26:47.706Z,9.00
2022-12-04T13:29:30.402Z,9.00
2022-12-04T13:32:30.031Z,9.00
2022-12-04T13:35:26.219Z,9.00
2022-12-04T13:38:25.763Z,9.00
2022-12-04T13:40:56.694Z,9.00
2022-12-04T13:43:41.475Z,9.00
2022-12-04T13:46:42.554Z,9.00
2022-12-04T13:49:18.045Z,9.00
2022-12-04T13:51:46.294Z,9.00
2022-12-04T13:54:12.866Z,9.00
2022-12-04T13:56:42.104Z,9.00
2022-12-04T13:59:30.456Z,9.00
2022-12-04T14:02:21.899Z,9.00
2022-12-04T14:05:07.964Z,9.10
2022-12-04T14:07:51.035Z,9.10
2022-12-04T14:10:18.133Z,9.10
2022-12-04T14:13:04.349Z,9.10
2022-12-04T14:15:34.919Z,9.10
2022-12-04T14:18:14.804Z,9.10
2022-12-04T14:20:44.348Z,9.10
2022-12-04T14:23:26.535Z,9.10
2022-12-04T14:25:58.748Z,9.10
2022-12-04T14:28:33.100Z,9.10
2022-12-04T14:31:20.155Z,9.10
2022-12-04T14:36:54.792Z,9.10
2022-12-04T14:39:26.586Z,9.10
2022-12-04T14:42:03.781Z,9.10
2022-12-04T14:44:31.860Z,9.10
2022-12-04T14:47:40.053Z,9.10
2022-12-04T14:50:28.457Z,9.10
2022-12-04T14:53:12.588Z,9.10
2022-12-04T14:56:23.095Z,9.20
2022-12-04T14:58:50.245Z,9.20
2022-12-04T15:01:30.674Z,9.20
2022-12-04T15:04:00.159Z,9.20
2022-12-04T15:07:01.003Z,9.20
2022-12-04T15:09:47.583Z,9.20
2022-12-04T15:12:33.566Z,9.10
2022-12-04T15:15:09.755Z,9.10
2022-12-04T15:17:41.602Z,9.10
2022-12-04T15:20:28.860Z,9.10
2022-12-04T15:22:58.722Z,9.10
2022-12-04T15:25:31.416Z,9.20
2022-12-04T15:28:20.931Z,9.20
2022-12-04T15:30:49.886Z,9.20
2022-12-04T15:33:26.408Z,9.10
2022-12-04T15:36:00.201Z,9.20
2022-12-04T15:38:27.475Z,9.20
2022-12-04T15:40:57.501Z,9.20
2022-12-04T15:43:38.855Z,9.20
2022-12-04T15:46:21.974Z,9.20
2022-12-04T15:48:48.738Z,9.20
2022-12-04T15:51:17.023Z,9.20
2022-12-04T15:53:45.806Z,9.20
2022-12-04T15:56:21.065Z,9.20
2022-12-04T15:59:00.779Z,9.20
2022-12-04T16:01:37.476Z,9.20
2022-12-04T16:04:04.183Z,9.20
2022-12-04T16:06:33.542Z,9.20
2022-12-04T16:09:18.164Z,9.20
2022-12-04T16:11:44.823Z,9.20
2022-12-04T16:14:11.425Z,9.20
2022-12-04T16:16:42.113Z,9.20
2022-12-04T16:19:14.729Z,9.20
2022-12-04T16:21:41.367Z,9.30
2022-12-04T16:24:14.393Z,9.30
2022-12-04T16:26:41.543Z,9.30
2022-12-04T16:29:08.281Z,9.30
2022-12-04T16:31:35.389Z,9.30
2022-12-04T16:34:02.059Z,9.40
2022-12-04T16:36:28.791Z,9.50
2022-12-04T16:38:55.437Z,9.50
2022-12-04T16:41:22.222Z,9.50
2022-12-04T16:43:58.591Z,9.50
2022-12-04T16:46:27.294Z,9.50
2022-12-04T16:48:54.576Z,9.50
2022-12-04T16:51:26.566Z,9.40
2022-12-04T16:53:54.299Z,9.40
2022-12-04T16:56:24.115Z,9.40
2022-12-04T16:58:50.846Z,9.40
2022-12-04T17:01:24.249Z,9.40
2022-12-04T17:03:51.518Z,9.50
2022-12-04T17:06:18.566Z,9.50
2022-12-04T17:08:45.355Z,9.50
2022-12-04T17:11:14.452Z,9.40
2022-12-04T17:13:43.243Z,9.60
2022-12-04T17:16:14.590Z,9.50
2022-12-04T17:18:42.362Z,9.50
2022-12-04T17:21:12.691Z,9.40
2022-12-04T17:23:40.630Z,9.50
2022-12-04T17:26:12.267Z,9.50
2022-12-04T17:28:39.780Z,9.50
2022-12-04T17:31:17.059Z,9.50
2022-12-04T17:33:44.219Z,9.50
2022-12-04T17:36:17.983Z,9.50
2022-12-04T17:38:44.760Z,9.50
2022-12-04T17:41:14.033Z,9.50
2022-12-04T17:43:41.989Z,9.50
2022-12-04T17:46:14.338Z,9.50
2022-12-04T17:48:41.932Z,9.50
2022-12-04T17:51:14.835Z,9.50
2022-12-04T17:53:41.554Z,9.50
2022-12-04T17:56:10.735Z,9.50
2022-12-04T17:58:37.545Z,9.50
2022-12-04T18:01:06.403Z,9.50
2022-12-04T18:03:33.727Z,9.50
2022-12-04T18:06:01.370Z,9.50
2022-12-04T18:08:30.743Z,9.50
2022-12-04T18:10:57.591Z,9.60
2022-12-04T18:13:45.024Z,9.60
2022-12-04T18:16:21.855Z,9.60
2022-12-04T18:19:11.295Z,9.50
2022-12-04T18:22:22.678Z,9.50
2022-12-04T18:28:06.234Z,9.60
2022-12-04T18:30:34.141Z,9.60
2022-12-04T18:33:00.723Z,9.50
2022-12-04T18:35:27.352Z,9.50
2022-12-04T18:37:53.942Z,9.50
2022-12-04T18:40:20.528Z,9.50
2022-12-04T18:42:47.159Z,9.50
2022-12-04T18:45:13.839Z,9.50
2022-12-04T18:47:40.465Z,9.50
2022-12-04T18:50:07.439Z,9.60
2022-12-04T18:52:36.767Z,9.50
2022-12-04T18:55:03.533Z,9.50
2022-12-04T18:57:30.162Z,9.50
2022-12-04T18:59:57.018Z,9.50
2022-12-04T19:02:23.984Z,9.50
2022-12-04T19:04:50.792Z,9.60
2022-12-04T19:07:18.653Z,9.60
2022-12-04T19:10:10.344Z,9.60
2022-12-04T19:12:32.491Z,9.60
2022-12-04T19:14:59.156Z,9.60
2022-12-04T19:17:25.731Z,9.50
2022-12-04T19:19:52.336Z,9.50
2022-12-04T19:22:19.063Z,9.50
2022-12-04T19:24:46.862Z,9.60
2022-12-04T19:27:14.055Z,9.60
2022-12-04T19:29:42.390Z,9.60
2022-12-04T19:32:10.674Z,9.50
2022-12-04T19:34:37.977Z,9.60
2022-12-04T19:37:04.802Z,9.60
2022-12-04T19:39:31.486Z,9.60
2022-12-04T19:41:58.104Z,9.60
2022-12-04T19:44:48.361Z,9.60
2022-12-04T19:47:11.279Z,9.60
2022-12-04T19:49:38.119Z,9.60
2022-12-04T19:52:05.460Z,9.60
2022-12-04T19:54:32.240Z,9.60
2022-12-04T19:56:59.054Z,9.60
2022-12-04T19:59:27.146Z,9.60
2022-12-04T20:01:55.301Z,9.50
2022-12-04T20:04:22.126Z,9.60
2022-12-04T20:06:48.758Z,9.60
2022-12-04T20:09:19.399Z,9.50
2022-12-04T20:11:46.476Z,9.60
2022-12-04T20:14:13.469Z,9.60
2022-12-04T20:16:40.783Z,9.60
2022-12-04T20:19:14.356Z,9.60
2022-12-04T20:21:41.223Z,9.60
2022-12-04T20:24:08.195Z,9.90
2022-12-04T20:26:38.132Z,9.80
2022-12-04T20:29:06.711Z,9.70
2022-12-04T20:31:39.154Z,9.60
2022-12-04T20:34:08.615Z,9.60
2022-12-04T20:36:37.956Z,9.60
2022-12-04T20:39:05.758Z,9.60
2022-12-04T20:41:33.554Z,9.60
2022-12-04T20:44:02.442Z,9.60
2022-12-04T20:46:35.772Z,9.60
2022-12-04T20:49:06.191Z,9.70
2022-12-04T20:51:39.313Z,9.70
2022-12-04T20:54:07.358Z,9.70
2022-12-04T20:56:36.696Z,9.60
2022-12-04T20:59:08.089Z,9.60
2022-12-04T21:01:35.474Z,9.60
2022-12-04T21:04:03.986Z,9.60
2022-12-04T21:06:36.885Z,9.60
2022-12-04T21:09:10.486Z,9.60
2022-12-04T21:11:40.281Z,9.60
2022-12-04T21:14:30.294Z,9.60
2022-12-04T21:16:57.407Z,9.60
2022-12-04T21:19:24.773Z,9.60
2022-12-04T21:21:51.772Z,9.50
2022-12-04T21:24:20.968Z,9.60
2022-12-04T21:26:47.914Z,9.60
2022-12-04T21:29:15.447Z,9.60
2022-12-04T21:31:42.131Z,9.60
2022-12-04T21:34:11.875Z,9.60
2022-12-04T21:36:38.871Z,9.60
2022-12-04T21:39:06.958Z,9.70
2022-12-04T21:41:52.322Z,9.70
2022-12-04T21:44:20.093Z,9.60
2022-12-04T21:46:47.600Z,9.60
2022-12-04T21:49:15.547Z,9.60
2022-12-04T21:51:58.894Z,9.60
2022-12-04T21:54:27.416Z,9.60
2022-12-04T21:56:54.829Z,9.60
2022-12-04T21:59:21.701Z,9.60
2022-12-04T22:01:48.476Z,9.60
2022-12-04T22:04:15.535Z,9.60
2022-12-04T22:06:42.465Z,9.60
2022-12-04T22:09:11.510Z,9.60
2022-12-04T22:11:39.010Z,9.60
2022-12-04T22:14:05.670Z,9.60
2022-12-04T22:16:35.756Z,9.60
2022-12-04T22:19:05.021Z,9.70
2022-12-04T22:21:31.597Z,9.60
2022-12-04T22:23:59.801Z,9.70
2022-12-04T22:26:28.036Z,9.70
2022-12-04T22:28:55.167Z,9.70
2022-12-04T22:31:26.229Z,9.60
2022-12-04T22:33:54.793Z,9.70
2022-12-04T22:36:24.885Z,9.60
2022-12-04T22:41:38.234Z,9.60
2022-12-04T22:44:05.331Z,9.60
2022-12-04T22:46:32.599Z,9.60
2022-12-04T22:48:59.885Z,9.60
2022-12-04T22:51:27.283Z,9.60
2022-12-04T22:53:56.903Z,9.60
2022-12-04T22:56:26.016Z,9.60
2022-12-04T22:58:54.037Z,9.60
2022-12-04T23:01:23.361Z,9.60
2022-12-04T23:03:51.106Z,9.60
2022-12-04T23:06:19.830Z,9.70
2022-12-04T23:08:46.751Z,9.70
2022-12-04T23:11:16.332Z,9.60
2022-12-04T23:13:44.205Z,9.70
2022-12-04T23:16:13.266Z,9.60
2022-12-04T23:18:43.659Z,9.60
2022-12-04T23:21:13.495Z,9.60
2022-12-04T23:23:42.036Z,9.60
2022-12-04T23:26:15.798Z,9.60
2022-12-04T23:28:43.006Z,9.60
2022-12-04T23:31:10.894Z,9.60
2022-12-04T23:33:38.553Z,9.60
2022-12-04T23:36:06.824Z,9.60
2022-12-04T23:38:35.299Z,9.70
2022-12-04T23:41:04.093Z,9.70
2022-12-04T23:43:30.792Z,9.70
2022-12-04T23:45:57.510Z,9.70
2022-12-04T23:48:25.357Z,9.60
2022-12-04T23:50:52.261Z,9.60
2022-12-04T23:53:19.494Z,9.60
2022-12-04T23:55:56.267Z,9.60
2022-12-04T23:58:22.919Z,9.60
